sensor_id;sensor_type;location;lat;lon;timestamp;pressure;altitude;pressure_sealevel;temperature;humidity
56400;BME280;42298;53.638;9.876;2023-06-05T00:02:13;102161.75;;;13.91;63.90
56400;BME280;42298;53.638;9.876;2023-06-05T00:04:38;102168.53;;;13.80;64.61
56400;BME280;42298;53.638;9.876;2023-06-05T00:07:05;102162.31;;;13.70;65.50
56400;BME280;42298;53.638;9.876;2023-06-05T00:09:30;102156.19;;;13.73;64.10
56400;BME280;42298;53.638;9.876;2023-06-05T00:11:57;102166.66;;;13.76;64.35
56400;BME280;42298;53.638;9.876;2023-06-05T00:14:22;102162.72;;;13.82;63.67
56400;BME280;42298;53.638;9.876;2023-06-05T00:16:48;102169.31;;;13.86;63.33
56400;BME280;42298;53.638;9.876;2023-06-05T00:19:16;102169.03;;;13.87;63.33
56400;BME280;42298;53.638;9.876;2023-06-05T00:21:41;102155.28;;;13.77;63.75
56400;BME280;42298;53.638;9.876;2023-06-05T00:24:07;102166.63;;;13.81;63.94
56400;BME280;42298;53.638;9.876;2023-06-05T00:26:32;102170.38;;;13.90;64.65
56400;BME280;42298;53.638;9.876;2023-06-05T00:28:59;102169.53;;;13.89;64.11
56400;BME280;42298;53.638;9.876;2023-06-05T00:31:25;102173.13;;;13.90;64.05
56400;BME280;42298;53.638;9.876;2023-06-05T00:33:50;102180.09;;;13.87;64.42
56400;BME280;42298;53.638;9.876;2023-06-05T00:36:17;102172.59;;;13.88;64.37
56400;BME280;42298;53.638;9.876;2023-06-05T00:38:44;102170.63;;;13.93;64.67
56400;BME280;42298;53.638;9.876;2023-06-05T00:41:10;102167.00;;;13.93;63.67
56400;BME280;42298;53.638;9.876;2023-06-05T00:43:35;102174.31;;;13.84;63.83
56400;BME280;42298;53.638;9.876;2023-06-05T00:46:03;102171.69;;;13.74;63.63
56400;BME280;42298;53.638;9.876;2023-06-05T00:48:30;102169.88;;;13.64;63.85
56400;BME280;42298;53.638;9.876;2023-06-05T00:50:57;102172.69;;;13.59;63.88
56400;BME280;42298;53.638;9.876;2023-06-05T00:53:23;102170.22;;;13.58;64.19
56400;BME280;42298;53.638;9.876;2023-06-05T00:55:49;102163.09;;;13.52;63.91
56400;BME280;42298;53.638;9.876;2023-06-05T00:58:15;102170.22;;;13.58;64.30
56400;BME280;42298;53.638;9.876;2023-06-05T01:00:41;102165.56;;;13.53;63.26
56400;BME280;42298;53.638;9.876;2023-06-05T01:03:07;102169.22;;;13.48;64.96
56400;BME280;42298;53.638;9.876;2023-06-05T01:05:34;102164.84;;;13.42;64.08
56400;BME280;42298;53.638;9.876;2023-06-05T01:08:03;102164.41;;;13.35;63.78
56400;BME280;42298;53.638;9.876;2023-06-05T01:10:30;102164.41;;;13.35;63.57
56400;BME280;42298;53.638;9.876;2023-06-05T01:13:23;102159.53;;;13.27;63.92
56400;BME280;42298;53.638;9.876;2023-06-05T01:15:51;102154.91;;;13.18;64.77
56400;BME280;42298;53.638;9.876;2023-06-05T01:18:18;102154.94;;;13.13;63.76
56400;BME280;42298;53.638;9.876;2023-06-05T01:20:44;102158.81;;;13.17;64.36
56400;BME280;42298;53.638;9.876;2023-06-05T01:23:11;102155.25;;;13.11;64.38
56400;BME280;42298;53.638;9.876;2023-06-05T01:25:36;102156.13;;;13.07;64.76
56400;BME280;42298;53.638;9.876;2023-06-05T01:28:13;102152.25;;;13.08;64.61
56400;BME280;42298;53.638;9.876;2023-06-05T01:31:11;102152.84;;;13.05;64.61
56400;BME280;42298;53.638;9.876;2023-06-05T01:33:44;102159.78;;;12.97;63.93
56400;BME280;42298;53.638;9.876;2023-06-05T01:36:15;102147.22;;;12.81;65.52
56400;BME280;42298;53.638;9.876;2023-06-05T01:38:43;102149.78;;;12.73;65.68
56400;BME280;42298;53.638;9.876;2023-06-05T01:41:11;102145.69;;;12.65;65.87
56400;BME280;42298;53.638;9.876;2023-06-05T01:43:37;102144.88;;;12.65;65.62
56400;BME280;42298;53.638;9.876;2023-06-05T01:46:04;102145.16;;;12.63;65.16
56400;BME280;42298;53.638;9.876;2023-06-05T01:48:31;102145.78;;;12.55;65.82
56400;BME280;42298;53.638;9.876;2023-06-05T01:50:58;102142.50;;;12.48;66.27
56400;BME280;42298;53.638;9.876;2023-06-05T01:53:24;102139.97;;;12.57;65.93
56400;BME280;42298;53.638;9.876;2023-06-05T01:55:49;102141.63;;;12.58;64.71
56400;BME280;42298;53.638;9.876;2023-06-05T01:58:18;102143.09;;;12.45;66.75
56400;BME280;42298;53.638;9.876;2023-06-05T02:00:44;102140.38;;;12.40;65.38
56400;BME280;42298;53.638;9.876;2023-06-05T02:03:10;102143.25;;;12.30;65.39
56400;BME280;42298;53.638;9.876;2023-06-05T02:05:35;102138.03;;;12.24;65.81
56400;BME280;42298;53.638;9.876;2023-06-05T02:08:02;102136.66;;;12.21;66.70
56400;BME280;42298;53.638;9.876;2023-06-05T02:10:30;102138.78;;;12.34;66.56
56400;BME280;42298;53.638;9.876;2023-06-05T02:12:56;102145.91;;;12.40;65.99
56400;BME280;42298;53.638;9.876;2023-06-05T02:15:22;102138.50;;;12.36;66.21
56400;BME280;42298;53.638;9.876;2023-06-05T02:17:48;102139.25;;;12.41;65.78
56400;BME280;42298;53.638;9.876;2023-06-05T02:20:23;102131.56;;;12.38;65.86
56400;BME280;42298;53.638;9.876;2023-06-05T02:22:49;102126.06;;;12.33;65.85
56400;BME280;42298;53.638;9.876;2023-06-05T02:25:20;102125.28;;;12.28;66.16
56400;BME280;42298;53.638;9.876;2023-06-05T02:27:47;102128.09;;;12.23;65.81
56400;BME280;42298;53.638;9.876;2023-06-05T02:30:13;102112.44;;;12.08;65.93
56400;BME280;42298;53.638;9.876;2023-06-05T02:32:39;102124.28;;;12.14;65.80
56400;BME280;42298;53.638;9.876;2023-06-05T02:35:09;102120.97;;;12.12;65.99
56400;BME280;42298;53.638;9.876;2023-06-05T02:37:37;102116.03;;;12.09;67.30
56400;BME280;42298;53.638;9.876;2023-06-05T02:40:07;102119.09;;;12.02;67.26
56400;BME280;42298;53.638;9.876;2023-06-05T02:42:34;102110.31;;;12.00;67.08
56400;BME280;42298;53.638;9.876;2023-06-05T02:45:00;102110.59;;;11.99;67.55
56400;BME280;42298;53.638;9.876;2023-06-05T02:47:26;102107.84;;;11.94;67.81
56400;BME280;42298;53.638;9.876;2023-06-05T02:49:51;102121.66;;;11.94;67.05
56400;BME280;42298;53.638;9.876;2023-06-05T02:52:16;102111.47;;;11.84;68.25
56400;BME280;42298;53.638;9.876;2023-06-05T02:54:41;102104.63;;;11.77;67.90
56400;BME280;42298;53.638;9.876;2023-06-05T02:57:07;102111.84;;;11.73;66.89
56400;BME280;42298;53.638;9.876;2023-06-05T02:59:33;102106.59;;;11.71;68.76
56400;BME280;42298;53.638;9.876;2023-06-05T03:02:05;102110.97;;;11.77;67.91
56400;BME280;42298;53.638;9.876;2023-06-05T03:04:30;102097.69;;;11.84;67.29
56400;BME280;42298;53.638;9.876;2023-06-05T03:06:58;102093.81;;;11.85;67.45
56400;BME280;42298;53.638;9.876;2023-06-05T03:09:28;102097.31;;;12.01;66.89
56400;BME280;42298;53.638;9.876;2023-06-05T03:11:53;102090.72;;;11.97;66.41
56400;BME280;42298;53.638;9.876;2023-06-05T03:14:18;102099.25;;;12.00;67.26
56400;BME280;42298;53.638;9.876;2023-06-05T03:16:45;102101.44;;;12.03;67.04
56400;BME280;42298;53.638;9.876;2023-06-05T03:19:11;102097.81;;;12.08;66.26
56400;BME280;42298;53.638;9.876;2023-06-05T03:21:38;102098.88;;;12.12;66.73
56400;BME280;42298;53.638;9.876;2023-06-05T03:24:06;102097.19;;;12.16;66.26
56400;BME280;42298;53.638;9.876;2023-06-05T03:26:32;102090.56;;;12.17;66.35
56400;BME280;42298;53.638;9.876;2023-06-05T03:28:58;102097.94;;;12.26;66.67
56400;BME280;42298;53.638;9.876;2023-06-05T03:31:24;102103.38;;;12.36;66.04
56400;BME280;42298;53.638;9.876;2023-06-05T03:33:49;102109.34;;;12.48;66.63
56400;BME280;42298;53.638;9.876;2023-06-05T03:36:14;102106.28;;;12.55;66.51
56400;BME280;42298;53.638;9.876;2023-06-05T03:38:44;102103.09;;;12.71;67.33
56400;BME280;42298;53.638;9.876;2023-06-05T03:41:09;102110.34;;;12.91;66.35
56400;BME280;42298;53.638;9.876;2023-06-05T03:43:35;102109.34;;;13.10;65.79
56400;BME280;42298;53.638;9.876;2023-06-05T03:46:01;102104.19;;;13.27;65.33
56400;BME280;42298;53.638;9.876;2023-06-05T03:48:27;102108.75;;;13.37;64.98
56400;BME280;42298;53.638;9.876;2023-06-05T03:50:52;102103.16;;;13.42;65.38
56400;BME280;42298;53.638;9.876;2023-06-05T03:53:18;102095.63;;;13.48;64.81
56400;BME280;42298;53.638;9.876;2023-06-05T03:55:48;102107.13;;;13.55;64.30
56400;BME280;42298;53.638;9.876;2023-06-05T03:58:15;102113.50;;;13.55;65.31
56400;BME280;42298;53.638;9.876;2023-06-05T04:00:46;102109.31;;;13.58;64.76
56400;BME280;42298;53.638;9.876;2023-06-05T04:03:14;102115.03;;;13.66;65.32
56400;BME280;42298;53.638;9.876;2023-06-05T04:05:41;102110.84;;;13.69;65.05
56400;BME280;42298;53.638;9.876;2023-06-05T04:08:07;102119.09;;;13.74;65.42
56400;BME280;42298;53.638;9.876;2023-06-05T04:10:34;102101.41;;;13.70;65.94
56400;BME280;42298;53.638;9.876;2023-06-05T04:12:59;102117.50;;;13.68;65.75
56400;BME280;42298;53.638;9.876;2023-06-05T04:15:25;102111.72;;;13.64;66.18
56400;BME280;42298;53.638;9.876;2023-06-05T04:17:51;102116.41;;;13.87;66.81
56400;BME280;42298;53.638;9.876;2023-06-05T04:20:17;102112.22;;;14.27;65.28
56400;BME280;42298;53.638;9.876;2023-06-05T04:22:43;102113.56;;;14.80;64.31
56400;BME280;42298;53.638;9.876;2023-06-05T04:25:09;102106.63;;;15.37;63.09
56400;BME280;42298;53.638;9.876;2023-06-05T04:27:38;102110.44;;;16.03;61.51
56400;BME280;42298;53.638;9.876;2023-06-05T04:30:09;102118.50;;;16.62;59.60
56400;BME280;42298;53.638;9.876;2023-06-05T04:32:35;102116.50;;;17.15;58.31
56400;BME280;42298;53.638;9.876;2023-06-05T04:35:04;102115.94;;;17.75;56.58
56400;BME280;42298;53.638;9.876;2023-06-05T04:37:30;102108.13;;;18.19;55.54
56400;BME280;42298;53.638;9.876;2023-06-05T04:39:56;102116.47;;;18.62;54.03
56400;BME280;42298;53.638;9.876;2023-06-05T04:42:23;102119.22;;;18.87;53.45
56400;BME280;42298;53.638;9.876;2023-06-05T04:44:59;102110.34;;;19.40;51.49
56400;BME280;42298;53.638;9.876;2023-06-05T04:47:26;102116.25;;;19.76;51.45
56400;BME280;42298;53.638;9.876;2023-06-05T04:49:51;102119.13;;;20.09;49.98
56400;BME280;42298;53.638;9.876;2023-06-05T04:52:19;102115.28;;;20.42;49.59
56400;BME280;42298;53.638;9.876;2023-06-05T04:54:46;102108.66;;;20.79;48.52
56400;BME280;42298;53.638;9.876;2023-06-05T04:57:12;102115.28;;;21.08;47.72
56400;BME280;42298;53.638;9.876;2023-06-05T04:59:37;102109.63;;;21.28;47.06
56400;BME280;42298;53.638;9.876;2023-06-05T05:02:03;102115.09;;;21.37;46.97
56400;BME280;42298;53.638;9.876;2023-06-05T05:04:29;102118.25;;;21.47;46.50
56400;BME280;42298;53.638;9.876;2023-06-05T05:06:55;102119.41;;;21.58;46.81
56400;BME280;42298;53.638;9.876;2023-06-05T05:09:27;102119.75;;;21.69;45.65
56400;BME280;42298;53.638;9.876;2023-06-05T05:11:56;102116.88;;;21.89;45.54
56400;BME280;42298;53.638;9.876;2023-06-05T05:14:23;102114.63;;;21.95;45.55
56400;BME280;42298;53.638;9.876;2023-06-05T05:16:52;102115.56;;;21.87;44.84
56400;BME280;42298;53.638;9.876;2023-06-05T05:19:23;102113.38;;;21.80;46.32
56400;BME280;42298;53.638;9.876;2023-06-05T05:21:48;102111.13;;;21.98;45.25
56400;BME280;42298;53.638;9.876;2023-06-05T05:24:14;102117.88;;;22.09;45.30
56400;BME280;42298;53.638;9.876;2023-06-05T05:26:39;102114.03;;;22.41;44.98
56400;BME280;42298;53.638;9.876;2023-06-05T05:29:05;102116.03;;;22.40;44.44
56400;BME280;42298;53.638;9.876;2023-06-05T05:31:30;102114.47;;;22.55;44.50
56400;BME280;42298;53.638;9.876;2023-06-05T05:33:57;102118.25;;;22.90;43.72
56400;BME280;42298;53.638;9.876;2023-06-05T05:36:23;102113.41;;;23.03;43.21
56400;BME280;42298;53.638;9.876;2023-06-05T05:38:48;102102.34;;;22.94;43.10
56400;BME280;42298;53.638;9.876;2023-06-05T05:41:14;102112.28;;;22.76;43.80
56400;BME280;42298;53.638;9.876;2023-06-05T05:43:39;102105.16;;;22.51;44.19
56400;BME280;42298;53.638;9.876;2023-06-05T05:46:05;102109.47;;;22.76;43.94
56400;BME280;42298;53.638;9.876;2023-06-05T05:48:30;102109.13;;;22.93;43.77
56400;BME280;42298;53.638;9.876;2023-06-05T05:50:55;102122.38;;;23.08;43.36
56400;BME280;42298;53.638;9.876;2023-06-05T05:53:21;102103.38;;;23.33;43.24
56400;BME280;42298;53.638;9.876;2023-06-05T05:55:46;102115.69;;;23.59;43.11
56400;BME280;42298;53.638;9.876;2023-06-05T05:58:11;102119.75;;;23.77;42.59
56400;BME280;42298;53.638;9.876;2023-06-05T06:00:37;102125.19;;;23.86;42.27
56400;BME280;42298;53.638;9.876;2023-06-05T06:03:03;102120.28;;;23.83;42.30
56400;BME280;42298;53.638;9.876;2023-06-05T06:05:28;102119.75;;;23.77;42.41
56400;BME280;42298;53.638;9.876;2023-06-05T06:07:54;102113.19;;;23.54;43.06
56400;BME280;42298;53.638;9.876;2023-06-05T06:10:21;102120.28;;;23.98;42.94
56400;BME280;42298;53.638;9.876;2023-06-05T06:12:46;102127.41;;;24.11;42.37
56400;BME280;42298;53.638;9.876;2023-06-05T06:15:12;102116.34;;;24.18;42.52
56400;BME280;42298;53.638;9.876;2023-06-05T06:17:40;102127.94;;;24.71;41.87
56400;BME280;42298;53.638;9.876;2023-06-05T06:20:06;102125.81;;;24.87;41.08
56400;BME280;42298;53.638;9.876;2023-06-05T06:22:32;102126.69;;;25.10;41.26
56400;BME280;42298;53.638;9.876;2023-06-05T06:24:57;102135.22;;;25.36;40.53
56400;BME280;42298;53.638;9.876;2023-06-05T06:27:23;102127.47;;;25.52;40.34
56400;BME280;42298;53.638;9.876;2023-06-05T06:29:51;102130.56;;;25.24;40.70
56400;BME280;42298;53.638;9.876;2023-06-05T06:32:20;102125.00;;;24.86;41.60
56400;BME280;42298;53.638;9.876;2023-06-05T06:34:45;102123.44;;;24.51;41.86
56400;BME280;42298;53.638;9.876;2023-06-05T06:37:13;102114.69;;;24.17;42.87
56400;BME280;42298;53.638;9.876;2023-06-05T06:39:40;102124.50;;;24.62;42.28
56400;BME280;42298;53.638;9.876;2023-06-05T06:42:08;102112.25;;;24.54;42.26
56400;BME280;42298;53.638;9.876;2023-06-05T06:44:35;102114.50;;;24.45;43.27
56400;BME280;42298;53.638;9.876;2023-06-05T06:47:00;102129.63;;;24.56;42.77
56400;BME280;42298;53.638;9.876;2023-06-05T06:49:26;102123.09;;;24.33;43.29
56400;BME280;42298;53.638;9.876;2023-06-05T06:51:51;102127.59;;;24.95;42.30
56400;BME280;42298;53.638;9.876;2023-06-05T06:54:17;102123.06;;;25.32;42.11
56400;BME280;42298;53.638;9.876;2023-06-05T06:56:42;102126.50;;;25.67;41.42
56400;BME280;42298;53.638;9.876;2023-06-05T06:59:12;102131.78;;;25.46;41.67
56400;BME280;42298;53.638;9.876;2023-06-05T07:01:43;102126.72;;;25.55;41.24
56400;BME280;42298;53.638;9.876;2023-06-05T07:04:09;102131.22;;;25.59;41.25
56400;BME280;42298;53.638;9.876;2023-06-05T07:06:35;102130.69;;;25.54;41.31
56400;BME280;42298;53.638;9.876;2023-06-05T07:09:00;102120.75;;;25.86;41.10
56400;BME280;42298;53.638;9.876;2023-06-05T07:11:26;102128.72;;;26.33;39.85
56400;BME280;42298;53.638;9.876;2023-06-05T07:13:51;102123.16;;;26.10;40.12
56400;BME280;42298;53.638;9.876;2023-06-05T07:16:18;102121.94;;;26.11;40.60
56400;BME280;42298;53.638;9.876;2023-06-05T07:18:43;102125.81;;;26.59;39.75
56400;BME280;42298;53.638;9.876;2023-06-05T07:21:08;102126.34;;;26.64;39.67
56400;BME280;42298;53.638;9.876;2023-06-05T07:23:34;102122.53;;;26.86;39.09
56400;BME280;42298;53.638;9.876;2023-06-05T07:26:00;102128.41;;;27.07;38.56
56400;BME280;42298;53.638;9.876;2023-06-05T07:28:25;102121.91;;;27.03;38.73
56400;BME280;42298;53.638;9.876;2023-06-05T07:30:52;102120.69;;;27.41;37.91
56400;BME280;42298;53.638;9.876;2023-06-05T07:33:17;102119.09;;;27.47;37.55
56400;BME280;42298;53.638;9.876;2023-06-05T07:35:43;102120.56;;;27.27;37.23
56400;BME280;42298;53.638;9.876;2023-06-05T07:38:13;102121.44;;;27.34;37.08
56400;BME280;42298;53.638;9.876;2023-06-05T07:40:38;102123.66;;;27.15;37.10
56400;BME280;42298;53.638;9.876;2023-06-05T07:43:03;102127.59;;;27.07;37.64
56400;BME280;42298;53.638;9.876;2023-06-05T07:45:29;102119.59;;;26.79;37.71
56400;BME280;42298;53.638;9.876;2023-06-05T07:47:54;102115.56;;;27.13;38.08
56400;BME280;42298;53.638;9.876;2023-06-05T07:50:19;102122.63;;;27.30;36.82
56400;BME280;42298;53.638;9.876;2023-06-05T07:52:45;102118.66;;;27.01;37.18
56400;BME280;42298;53.638;9.876;2023-06-05T07:55:10;102119.84;;;26.64;37.50
56400;BME280;42298;53.638;9.876;2023-06-05T07:57:35;102127.41;;;26.89;37.26
56400;BME280;42298;53.638;9.876;2023-06-05T08:00:01;102118.84;;;27.19;36.96
56400;BME280;42298;53.638;9.876;2023-06-05T08:02:27;102111.91;;;27.56;36.94
56400;BME280;42298;53.638;9.876;2023-06-05T08:04:52;102106.53;;;27.88;36.88
56400;BME280;42298;53.638;9.876;2023-06-05T08:07:18;102111.53;;;28.16;35.96
56400;BME280;42298;53.638;9.876;2023-06-05T08:09:43;102122.50;;;28.21;35.34
56400;BME280;42298;53.638;9.876;2023-06-05T08:12:08;102113.81;;;27.89;35.82
56400;BME280;42298;53.638;9.876;2023-06-05T08:14:34;102114.66;;;27.97;35.29
56400;BME280;42298;53.638;9.876;2023-06-05T08:17:00;102121.16;;;27.97;35.70
56400;BME280;42298;53.638;9.876;2023-06-05T08:19:26;102123.44;;;27.84;35.80
56400;BME280;42298;53.638;9.876;2023-06-05T08:21:52;102118.16;;;28.44;35.31
56400;BME280;42298;53.638;9.876;2023-06-05T08:24:22;102114.28;;;28.87;34.41
56400;BME280;42298;53.638;9.876;2023-06-05T08:26:47;102116.00;;;29.09;34.53
56400;BME280;42298;53.638;9.876;2023-06-05T08:29:14;102111.94;;;29.24;34.08
56400;BME280;42298;53.638;9.876;2023-06-05T08:31:39;102096.94;;;29.06;33.91
56400;BME280;42298;53.638;9.876;2023-06-05T08:34:05;102103.41;;;29.28;34.01
56400;BME280;42298;53.638;9.876;2023-06-05T08:36:30;102102.22;;;29.29;34.15
56400;BME280;42298;53.638;9.876;2023-06-05T08:38:58;102095.19;;;28.67;34.56
56400;BME280;42298;53.638;9.876;2023-06-05T08:41:24;102102.84;;;28.56;34.64
56400;BME280;42298;53.638;9.876;2023-06-05T08:43:49;102108.44;;;28.45;34.84
56400;BME280;42298;53.638;9.876;2023-06-05T08:46:15;102090.78;;;28.94;34.56
56400;BME280;42298;53.638;9.876;2023-06-05T08:51:27;102095.34;;;29.65;33.48
56400;BME280;42298;53.638;9.876;2023-06-05T08:53:56;102095.72;;;29.67;33.13
56400;BME280;42298;53.638;9.876;2023-06-05T08:56:23;102095.69;;;29.14;33.58
56400;BME280;42298;53.638;9.876;2023-06-05T08:58:49;102094.09;;;29.06;34.46
56400;BME280;42298;53.638;9.876;2023-06-05T09:01:16;102092.88;;;29.11;33.97
56400;BME280;42298;53.638;9.876;2023-06-05T09:03:41;102091.22;;;29.03;32.12
56400;BME280;42298;53.638;9.876;2023-06-05T09:06:10;102085.59;;;29.27;31.78
56400;BME280;42298;53.638;9.876;2023-06-05T09:08:35;102072.63;;;29.12;32.65
56400;BME280;42298;53.638;9.876;2023-06-05T09:13:46;102076.59;;;28.94;32.99
56400;BME280;42298;53.638;9.876;2023-06-05T09:16:12;102083.13;;;29.19;31.73
56400;BME280;42298;53.638;9.876;2023-06-05T09:18:51;102088.00;;;29.43;32.08
56400;BME280;42298;53.638;9.876;2023-06-05T09:21:18;102079.88;;;29.10;32.13
56400;BME280;42298;53.638;9.876;2023-06-05T09:23:43;102084.75;;;29.13;32.20
56400;BME280;42298;53.638;9.876;2023-06-05T09:26:10;102084.75;;;29.44;32.06
56400;BME280;42298;53.638;9.876;2023-06-05T09:29:01;102085.19;;;29.75;31.36
56400;BME280;42298;53.638;9.876;2023-06-05T09:31:40;102075.44;;;29.37;30.68
56400;BME280;42298;53.638;9.876;2023-06-05T09:34:05;102072.06;;;28.61;32.09
56400;BME280;42298;53.638;9.876;2023-06-05T09:36:32;102074.78;;;28.37;32.65
56400;BME280;42298;53.638;9.876;2023-06-05T09:39:13;102074.53;;;28.77;32.26
56400;BME280;42298;53.638;9.876;2023-06-05T09:41:43;102070.16;;;29.25;32.29
56400;BME280;42298;53.638;9.876;2023-06-05T09:44:09;102077.06;;;29.55;31.94
56400;BME280;42298;53.638;9.876;2023-06-05T09:46:49;102078.28;;;29.26;31.56
56400;BME280;42298;53.638;9.876;2023-06-05T09:49:14;102074.63;;;29.05;31.95
56400;BME280;42298;53.638;9.876;2023-06-05T09:51:42;102075.38;;;28.95;31.79
56400;BME280;42298;53.638;9.876;2023-06-05T09:54:08;102070.81;;;28.52;31.73
56400;BME280;42298;53.638;9.876;2023-06-05T09:56:36;102077.91;;;28.07;32.80
56400;BME280;42298;53.638;9.876;2023-06-05T09:59:03;102081.53;;;28.04;33.18
56400;BME280;42298;53.638;9.876;2023-06-05T10:01:29;102076.09;;;28.50;32.63
56400;BME280;42298;53.638;9.876;2023-06-05T10:04:00;102077.78;;;28.72;31.99
56400;BME280;42298;53.638;9.876;2023-06-05T10:06:27;102069.97;;;28.41;32.42
56400;BME280;42298;53.638;9.876;2023-06-05T10:08:55;102071.13;;;28.33;32.64
56400;BME280;42298;53.638;9.876;2023-06-05T10:11:23;102071.94;;;28.37;32.50
56400;BME280;42298;53.638;9.876;2023-06-05T10:13:50;102066.00;;;28.63;32.68
56400;BME280;42298;53.638;9.876;2023-06-05T10:16:19;102071.78;;;29.05;31.99
56400;BME280;42298;53.638;9.876;2023-06-05T10:18:48;102068.94;;;29.19;31.41
56400;BME280;42298;53.638;9.876;2023-06-05T10:21:16;102060.84;;;29.28;31.35
56400;BME280;42298;53.638;9.876;2023-06-05T10:23:48;102050.25;;;28.86;31.21
56400;BME280;42298;53.638;9.876;2023-06-05T10:26:27;102055.06;;;28.75;31.46
56400;BME280;42298;53.638;9.876;2023-06-05T10:32:09;102049.84;;;28.95;31.46
56400;BME280;42298;53.638;9.876;2023-06-05T10:34:49;102054.34;;;29.45;31.15
56400;BME280;42298;53.638;9.876;2023-06-05T10:40:09;102052.59;;;30.11;30.38
56400;BME280;42298;53.638;9.876;2023-06-05T10:42:36;102051.91;;;29.54;31.12
56400;BME280;42298;53.638;9.876;2023-06-05T10:45:02;102040.97;;;29.31;31.74
56400;BME280;42298;53.638;9.876;2023-06-05T10:52:42;102038.91;;;28.72;32.44
56400;BME280;42298;53.638;9.876;2023-06-05T10:55:08;102030.75;;;28.64;31.72
56400;BME280;42298;53.638;9.876;2023-06-05T10:58:09;102038.09;;;28.79;31.28
56400;BME280;42298;53.638;9.876;2023-06-05T11:00:38;102026.75;;;28.82;31.65
56400;BME280;42298;53.638;9.876;2023-06-05T11:03:04;102015.41;;;29.00;31.88
56400;BME280;42298;53.638;9.876;2023-06-05T11:05:31;102018.22;;;28.75;31.52
56400;BME280;42298;53.638;9.876;2023-06-05T11:08:16;102022.69;;;28.94;32.55
56400;BME280;42298;53.638;9.876;2023-06-05T11:11:05;102018.66;;;29.02;32.18
56400;BME280;42298;53.638;9.876;2023-06-05T11:13:56;102019.44;;;28.85;31.86
56400;BME280;42298;53.638;9.876;2023-06-05T11:18:53;102016.50;;;28.36;31.91
56400;BME280;42298;53.638;9.876;2023-06-05T11:21:20;102000.78;;;28.77;32.09
56400;BME280;42298;53.638;9.876;2023-06-05T11:24:15;102013.78;;;29.44;31.15
56400;BME280;42298;53.638;9.876;2023-06-05T11:26:44;102007.31;;;29.54;30.83
56400;BME280;42298;53.638;9.876;2023-06-05T11:29:12;102001.59;;;29.72;31.08
56400;BME280;42298;53.638;9.876;2023-06-05T11:31:39;101993.50;;;29.60;29.94
56400;BME280;42298;53.638;9.876;2023-06-05T11:34:11;101995.91;;;29.58;30.65
56400;BME280;42298;53.638;9.876;2023-06-05T11:36:38;102000.75;;;29.86;30.32
56400;BME280;42298;53.638;9.876;2023-06-05T11:39:04;101993.84;;;29.90;30.55
56400;BME280;42298;53.638;9.876;2023-06-05T11:41:29;101996.94;;;30.27;30.03
56400;BME280;42298;53.638;9.876;2023-06-05T11:43:55;102003.84;;;30.26;29.52
56400;BME280;42298;53.638;9.876;2023-06-05T11:46:42;101986.03;;;30.08;29.54
56400;BME280;42298;53.638;9.876;2023-06-05T11:49:28;101987.78;;;29.81;29.79
56400;BME280;42298;53.638;9.876;2023-06-05T11:51:54;101986.59;;;29.50;30.39
56400;BME280;42298;53.638;9.876;2023-06-05T11:54:28;101984.19;;;29.42;30.18
56400;BME280;42298;53.638;9.876;2023-06-05T11:56:59;101980.56;;;29.20;30.99
56400;BME280;42298;53.638;9.876;2023-06-05T11:59:26;101981.38;;;29.35;31.42
56400;BME280;42298;53.638;9.876;2023-06-05T12:01:52;101976.09;;;29.40;30.72
56400;BME280;42298;53.638;9.876;2023-06-05T12:04:22;101980.09;;;29.57;30.46
56400;BME280;42298;53.638;9.876;2023-06-05T12:06:47;101965.06;;;29.78;30.50
56400;BME280;42298;53.638;9.876;2023-06-05T12:09:15;101972.31;;;29.93;29.48
56400;BME280;42298;53.638;9.876;2023-06-05T12:11:42;101967.94;;;29.60;29.24
56400;BME280;42298;53.638;9.876;2023-06-05T12:14:10;101970.81;;;29.25;30.56
56400;BME280;42298;53.638;9.876;2023-06-05T12:16:37;101966.34;;;28.89;30.45
56400;BME280;42298;53.638;9.876;2023-06-05T12:19:13;101962.66;;;28.39;31.11
56400;BME280;42298;53.638;9.876;2023-06-05T12:21:39;101964.19;;;28.16;31.38
56400;BME280;42298;53.638;9.876;2023-06-05T12:24:05;101963.00;;;28.17;31.23
56400;BME280;42298;53.638;9.876;2023-06-05T12:26:54;101959.38;;;28.27;31.37
56400;BME280;42298;53.638;9.876;2023-06-05T12:29:27;101959.75;;;28.15;31.70
56400;BME280;42298;53.638;9.876;2023-06-05T12:32:00;101965.78;;;28.10;31.19
56400;BME280;42298;53.638;9.876;2023-06-05T12:34:43;101953.09;;;27.75;31.55
56400;BME280;42298;53.638;9.876;2023-06-05T12:37:41;101962.00;;;27.77;31.93
56400;BME280;42298;53.638;9.876;2023-06-05T12:40:11;101952.31;;;27.85;31.82
56400;BME280;42298;53.638;9.876;2023-06-05T12:42:39;101957.66;;;27.98;31.57
56400;BME280;42298;53.638;9.876;2023-06-05T12:45:07;101955.28;;;28.10;31.72
56400;BME280;42298;53.638;9.876;2023-06-05T12:47:33;101947.97;;;27.99;31.28
56400;BME280;42298;53.638;9.876;2023-06-05T12:50:01;101949.47;;;27.85;31.60
56400;BME280;42298;53.638;9.876;2023-06-05T12:52:28;101946.19;;;27.76;32.30
56400;BME280;42298;53.638;9.876;2023-06-05T12:54:54;101952.66;;;27.73;33.08
56400;BME280;42298;53.638;9.876;2023-06-05T12:57:21;101953.19;;;27.90;33.06
56400;BME280;42298;53.638;9.876;2023-06-05T12:59:47;101949.56;;;27.93;32.79
56400;BME280;42298;53.638;9.876;2023-06-05T13:02:12;101946.38;;;28.05;33.22
56400;BME280;42298;53.638;9.876;2023-06-05T13:04:38;101937.91;;;28.22;31.83
56400;BME280;42298;53.638;9.876;2023-06-05T13:07:05;101933.88;;;28.34;32.53
56400;BME280;42298;53.638;9.876;2023-06-05T13:09:31;101932.28;;;28.40;32.30
56400;BME280;42298;53.638;9.876;2023-06-05T13:11:58;101939.22;;;28.56;31.91
56400;BME280;42298;53.638;9.876;2023-06-05T13:14:28;101935.56;;;28.59;31.01